West Palm Beach, FL

5:48 AM EDT en Septiembre 30, 2014 (GMT -0400)
Palm Beach, FL | Change Station
CLOSE
Current Station
Estación meteorológica personal
Location: Palm Beach, FL
Altura: 8 ft
Estaciones meteorológicas cercanas

Alt 8 ft 26.71 °N, 80.04 °W | Updated 2 seconds ago

Partly Cloudy
Parcialmente nublado
76.3 ° F
Sensación térmica 76 ° F
N
0.0
Viento Variable Viento desde OSO
Gusts 2.0 mph

Hoy
Alta -- | Baja -- ° F
--% Posibilidad de precipitaciones
Ayer
Alta -- | Baja -- ° F
Precip. -- pul
7:12 AM 7:07 PM
Creciente, 35% visible
Presión 29.82 pul
Visibilidad 10.0 Millas
Nubes Baja 25000 ft
Índice de calor 76 ° F
Punto de rocío 75 ° F
Humedad 95%
Precipitaciones 0.00 pul
Espesor de la nieve No disponible.
UV 0 de una escala de 12
Polen 4.10 de una escala de 12
Calidad del aire No disponible.
Flu Activity No disponible.
METAR KPBI 300853Z 00000KT 10SM FEW250 24/23 A2982 RMK AO2 SLP097 T02390233 55008 $

More Conditions Fewer Conditions

Presión 29.82 pul
Visibilidad 10.0 Millas
Nubes Baja 25000 ft
Índice de calor 76 ° F
Punto de rocío 75 ° F
Humedad 95%
Precipitaciones 0.00 pul
Espesor de la nieve No disponible.
UV 0 de una escala de 12
Polen 4.10 de una escala de 12
Calidad del aire No disponible.
Flu Activity No disponible.
METAR KPBI 300853Z 00000KT 10SM FEW250 24/23 A2982 RMK AO2 SLP097 T02390233 55008 $

More Conditions Fewer Conditions

10-Day Weather Forecast

Almanac

Astronomía

Sep. 30, 2014 Salida Puesta
Hora real 7:12 AM EDT 7:07 PM EDT
Crepúsculo civil 6:49 AM EDT 7:30 PM EDT
Crepúsculo náutico 6:22 AM EDT 7:57 PM EDT
Crepúsculo astronómico 5:55 AM EDT 8:24 PM EDT
Luna 12:54 PM EDT Sin puesta de luna
Horas de luz 12h 41m
Horas de luz
11h 55m
Tomorrow will be 1m 33s shorter.
Creciente, 35% of the Moon is Illuminated
Hoy
Creciente
Oct 1
Cuarto creciente
Oct 8
Luna llena
Oct 15
Cuarto menguante
Oct 23
Nueva

Extremos de hoy

Máximos del estado Bajos del estado

Community

WunderPhotos

Upload Photos

1,757,606 ¡fotos cargadas!

Nearby

Calidad del aire

  Calidad del aire Índice AQ Contaminante
Ayer Buena
OZONE
Ayer Buena
PM2.5
Martes Buena
OZONE
Martes Buena
PM2.5

Grosos de nieve

Estación Profundido Altura
No tenemos constancia de nieve nueva.

Actividad de terremotos

Ciudad Distance Mag. Tiempo y dato
No hay informes recientes de la actividad sísmica.
Magnitud mínima muestra es 2,5.

Temperaturas de aguas costeras

Lugar Temperatura
Lake Worth, FL 84.9 ° F
Virginia Key, FL 84.9 ° F

Estaciones meteorológicas cercanas